createdAt,value
2022-09-23T00:00:49.591Z,10.30
2022-09-23T00:03:16.561Z,9.80
2022-09-23T00:05:43.623Z,9.23
2022-09-23T00:08:12.106Z,10.55
2022-09-23T00:10:40.261Z,8.40
2022-09-23T00:13:07.013Z,9.65
2022-09-23T00:15:38.735Z,13.20
2022-09-23T00:18:05.510Z,9.88
2022-09-23T00:20:36.274Z,11.68
2022-09-23T00:23:03.379Z,12.93
2022-09-23T00:49:38.074Z,9.20
2022-09-23T00:52:13.049Z,9.43
2022-09-23T00:54:40.128Z,11.25
2022-09-23T00:57:07.377Z,9.67
2022-09-23T00:59:34.096Z,12.90
2022-09-23T01:02:03.029Z,13.13
2022-09-23T01:04:30.554Z,11.25
2022-09-23T01:06:57.154Z,12.50
2022-09-23T01:09:25.133Z,12.90
2022-09-23T01:12:13.074Z,10.55
2022-09-23T01:15:10.976Z,13.23
2022-09-23T01:17:48.266Z,11.30
2022-09-23T01:20:39.093Z,13.15
2022-09-23T01:23:28.768Z,11.73
2022-09-23T01:26:31.778Z,12.70
2022-09-23T01:29:10.806Z,12.45
2022-09-23T01:31:47.649Z,12.48
2022-09-23T01:34:29.348Z,10.02
2022-09-23T01:37:08.913Z,11.27
2022-09-23T01:39:44.015Z,12.02
2022-09-23T01:42:22.536Z,15.40
2022-09-23T01:44:56.782Z,13.38
2022-09-23T01:47:30.515Z,10.32
2022-09-23T01:50:33.575Z,12.93
2022-09-23T01:53:06.747Z,13.23
2022-09-23T01:55:58.368Z,12.27
2022-09-23T01:58:30.339Z,12.07
2022-09-23T02:01:03.259Z,15.65
2022-09-23T02:03:47.303Z,14.67
2022-09-23T02:06:41.755Z,12.80
2022-09-23T02:09:16.279Z,12.38
2022-09-23T02:11:48.530Z,13.45
2022-09-23T02:14:28.954Z,13.65
2022-09-23T02:16:59.399Z,12.90
2022-09-23T02:19:40.003Z,19.65
2022-09-23T02:22:13.168Z,12.98
2022-09-23T02:24:40.003Z,14.00
2022-09-23T02:27:18.371Z,13.65
2022-09-23T02:30:03.149Z,13.27
2022-09-23T02:32:51.795Z,13.52
2022-09-23T02:35:40.125Z,17.02
2022-09-23T02:38:20.509Z,12.18
2022-09-23T02:40:57.409Z,15.80
2022-09-23T02:43:35.978Z,14.90
2022-09-23T02:46:04.665Z,14.40
2022-09-23T02:48:41.212Z,13.63
2022-09-23T02:51:09.839Z,11.35
2022-09-23T02:53:37.191Z,16.65
2022-09-23T02:56:14.579Z,16.97
2022-09-23T02:58:41.357Z,13.88
2022-09-23T03:01:23.411Z,16.23
2022-09-23T03:04:34.654Z,14.70
2022-09-23T03:07:33.008Z,14.13
2022-09-23T03:10:30.824Z,16.50
2022-09-23T03:13:39.500Z,13.35
2022-09-23T03:16:12.661Z,19.77
2022-09-23T03:19:05.180Z,13.45
2022-09-23T03:21:37.909Z,16.77
2022-09-23T03:24:07.332Z,17.00
2022-09-23T03:26:36.895Z,17.40
2022-09-23T03:29:09.390Z,17.35
2022-09-23T03:31:40.035Z,14.85
2022-09-23T03:34:16.436Z,16.02
2022-09-23T03:37:19.633Z,13.17
2022-09-23T03:39:56.227Z,11.75
2022-09-23T03:42:26.434Z,14.73
2022-09-23T03:44:56.760Z,11.98
2022-09-23T03:47:26.234Z,14.35
2022-09-23T03:49:53.187Z,14.57
2022-09-23T03:52:24.737Z,13.27
2022-09-23T03:54:52.175Z,14.70
2022-09-23T03:57:21.925Z,13.95
2022-09-23T03:59:51.951Z,15.00
2022-09-23T04:02:19.793Z,13.63
2022-09-23T04:04:46.667Z,15.40
2022-09-23T04:07:14.360Z,11.38
2022-09-23T04:09:41.480Z,11.38
2022-09-23T04:12:11.660Z,14.98
2022-09-23T04:14:38.220Z,13.47
2022-09-23T04:17:04.859Z,12.77
2022-09-23T04:19:31.469Z,13.30
2022-09-23T04:21:58.066Z,13.90
2022-09-23T04:24:24.745Z,13.82
2022-09-23T04:26:53.375Z,12.77
2022-09-23T04:29:20.756Z,19.77
2022-09-23T04:31:47.614Z,14.18
2022-09-23T04:34:15.795Z,13.68
2022-09-23T04:36:42.807Z,11.60
2022-09-23T04:39:09.406Z,12.10
2022-09-23T04:41:36.200Z,14.02
2022-09-23T04:44:03.467Z,12.75
2022-09-23T04:46:30.126Z,16.63
2022-09-23T04:48:57.138Z,13.02
2022-09-23T04:51:25.932Z,15.10
2022-09-23T04:53:54.531Z,15.20
2022-09-23T04:56:29.254Z,12.10
2022-09-23T04:58:58.882Z,14.10
2022-09-23T05:01:28.081Z,11.25
2022-09-23T05:03:58.942Z,14.33
2022-09-23T05:06:25.583Z,14.88
2022-09-23T05:08:54.496Z,13.80
2022-09-23T05:11:22.084Z,15.07
2022-09-23T05:13:50.512Z,12.80
2022-09-23T05:16:17.839Z,12.43
2022-09-23T05:18:45.811Z,12.35
2022-09-23T05:21:18.512Z,12.57
2022-09-23T05:23:58.684Z,13.07
2022-09-23T05:26:27.473Z,12.75
2022-09-23T05:28:54.487Z,12.50
2022-09-23T05:31:23.284Z,13.73
2022-09-23T05:33:59.533Z,12.25
2022-09-23T05:36:27.439Z,12.05
2022-09-23T05:38:54.579Z,17.05
2022-09-23T05:41:22.962Z,13.70
2022-09-23T05:43:51.660Z,13.23
2022-09-23T05:46:23.708Z,17.55
2022-09-23T05:48:50.684Z,14.25
2022-09-23T05:51:27.521Z,15.75
2022-09-23T05:53:58.177Z,14.90
2022-09-23T05:56:26.391Z,12.73
2022-09-23T05:58:54.795Z,16.88
2022-09-23T06:01:26.127Z,12.52
2022-09-23T06:03:56.885Z,14.68
2022-09-23T06:06:38.311Z,12.10
2022-09-23T06:09:05.940Z,14.85
2022-09-23T06:11:34.865Z,12.20
2022-09-23T06:14:02.739Z,14.13
2022-09-23T06:16:32.463Z,15.95
2022-09-23T06:19:06.289Z,11.97
2022-09-23T06:21:36.428Z,16.35
2022-09-23T06:24:03.295Z,15.57
2022-09-23T06:26:33.498Z,15.45
2022-09-23T06:29:02.154Z,13.85
2022-09-23T06:31:29.275Z,19.13
2022-09-23T06:34:06.031Z,20.33
2022-09-23T06:36:43.361Z,15.30
2022-09-23T06:39:11.907Z,13.30
2022-09-23T06:41:39.190Z,17.70
2022-09-23T06:44:05.977Z,14.23
2022-09-23T06:46:32.768Z,18.05
2022-09-23T06:48:59.451Z,15.35
2022-09-23T06:51:26.156Z,14.85
2022-09-23T06:53:52.823Z,13.23
2022-09-23T06:56:21.071Z,17.00
2022-09-23T06:58:48.111Z,14.05
2022-09-23T07:01:17.097Z,14.52
2022-09-23T07:03:45.511Z,13.05
2022-09-23T07:06:12.392Z,14.50
2022-09-23T07:08:41.884Z,17.53
2022-09-23T07:11:13.213Z,14.65
2022-09-23T07:13:41.263Z,13.10
2022-09-23T07:16:08.968Z,12.60
2022-09-23T07:18:37.468Z,14.35
2022-09-23T07:21:13.701Z,14.03
2022-09-23T07:23:41.357Z,16.70
2022-09-23T07:26:08.592Z,15.15
2022-09-23T07:28:36.693Z,14.38
2022-09-23T07:31:09.744Z,14.02
2022-09-23T07:33:38.656Z,13.57
2022-09-23T07:36:12.333Z,16.27
2022-09-23T07:38:44.263Z,16.65
2022-09-23T07:41:15.048Z,15.88
2022-09-23T07:43:41.646Z,15.73
2022-09-23T07:46:11.713Z,15.00
2022-09-23T07:48:39.234Z,13.98
2022-09-23T07:51:10.151Z,13.45
2022-09-23T07:53:37.233Z,14.13
2022-09-23T07:56:06.310Z,11.48
2022-09-23T07:58:34.227Z,15.93
2022-09-23T08:01:06.853Z,13.20
2022-09-23T08:03:33.590Z,13.25
2022-09-23T08:06:11.941Z,11.93
2022-09-23T08:08:43.227Z,12.82
2022-09-23T08:11:12.293Z,12.83
2022-09-23T08:13:38.942Z,15.25
2022-09-23T08:20:00.036Z,13.75
2022-09-23T08:22:26.611Z,10.48
2022-09-23T08:24:55.441Z,11.73
2022-09-23T08:27:23.170Z,14.90
2022-09-23T08:29:49.714Z,11.70
2022-09-23T08:32:16.636Z,12.82
2022-09-23T08:34:43.285Z,11.90
2022-09-23T08:37:11.104Z,9.20
2022-09-23T08:39:37.701Z,14.30
2022-09-23T08:42:31.047Z,12.57
2022-09-23T08:45:02.346Z,12.93
2022-09-23T08:47:43.642Z,12.13
2022-09-23T08:50:31.847Z,13.00
2022-09-23T08:53:05.411Z,9.63
2022-09-23T08:55:41.438Z,9.95
2022-09-23T08:58:26.398Z,11.25
2022-09-23T09:01:02.868Z,10.55
2022-09-23T09:03:54.335Z,13.53
2022-09-23T09:06:28.144Z,9.80
2022-09-23T09:09:00.947Z,9.57
2022-09-23T09:11:35.127Z,10.10
2022-09-23T09:14:47.613Z,8.57
2022-09-23T09:17:24.648Z,7.17
2022-09-23T09:20:20.053Z,10.02
2022-09-23T09:22:59.705Z,11.07
2022-09-23T09:37:46.661Z,9.23
2022-09-23T09:40:16.884Z,12.23
2022-09-23T09:42:47.556Z,8.23
2022-09-23T09:45:36.864Z,9.00
2022-09-23T09:48:17.366Z,7.33
2022-09-23T09:50:52.122Z,8.02
2022-09-23T09:53:24.655Z,10.77
2022-09-23T09:56:13.493Z,9.60
2022-09-23T09:58:51.797Z,11.50
2022-09-23T10:01:33.150Z,11.73
2022-09-23T10:04:03.661Z,14.38
2022-09-23T10:06:35.616Z,13.02
2022-09-23T10:09:04.861Z,10.35
2022-09-23T10:11:32.432Z,10.77
2022-09-23T10:14:17.464Z,9.00
2022-09-23T10:16:46.351Z,11.70
2022-09-23T10:19:26.822Z,10.60
2022-09-23T10:21:56.864Z,12.80
2022-09-23T10:24:27.539Z,13.35
2022-09-23T10:26:58.209Z,13.47
2022-09-23T10:29:29.736Z,17.60
2022-09-23T10:32:30.684Z,11.38
2022-09-23T10:35:03.243Z,16.05
2022-09-23T10:37:32.778Z,10.70
2022-09-23T10:40:18.685Z,12.93
2022-09-23T10:43:15.540Z,11.52
2022-09-23T10:46:07.418Z,10.38
2022-09-23T10:48:35.739Z,10.38
2022-09-23T10:51:14.351Z,12.90
2022-09-23T10:53:52.434Z,10.10
2022-09-23T10:56:36.585Z,10.60
2022-09-23T10:59:35.891Z,11.30
2022-09-23T11:02:45.024Z,13.27
2022-09-23T11:05:40.784Z,8.38
2022-09-23T11:08:39.840Z,9.53
2022-09-23T11:11:11.400Z,10.10
2022-09-23T11:13:55.145Z,11.70
2022-09-23T11:16:21.716Z,12.15
2022-09-23T11:19:03.949Z,12.75
2022-09-23T11:21:48.982Z,12.43
2022-09-23T11:24:50.007Z,9.63
2022-09-23T11:27:30.393Z,13.95
2022-09-23T11:30:15.104Z,12.48
2022-09-23T11:33:13.821Z,11.85
2022-09-23T11:35:49.832Z,10.13
2022-09-23T11:38:35.188Z,12.70
2022-09-23T11:41:12.177Z,9.98
2022-09-23T11:43:40.880Z,13.48
2022-09-23T11:46:31.812Z,12.15
2022-09-23T11:49:28.977Z,11.97
2022-09-23T11:52:01.720Z,11.23
2022-09-23T11:54:45.859Z,9.38
2022-09-23T11:57:44.662Z,11.13
2022-09-23T12:00:21.126Z,16.63
2022-09-23T12:03:06.597Z,7.87
2022-09-23T12:05:39.981Z,7.78
2022-09-23T12:08:17.808Z,8.10
2022-09-23T12:11:02.681Z,10.50
2022-09-23T12:14:07.051Z,10.32
2022-09-23T12:16:36.890Z,6.90
2022-09-23T12:23:16.302Z,8.45
2022-09-23T12:25:49.847Z,8.85
2022-09-23T12:28:27.773Z,7.70
2022-09-23T12:30:58.055Z,13.23
2022-09-23T12:33:31.046Z,6.70
2022-09-23T12:36:05.420Z,12.80
2022-09-23T12:38:37.339Z,8.27
2022-09-23T12:41:23.996Z,7.25
2022-09-23T12:43:55.165Z,13.97
2022-09-23T12:46:27.354Z,7.65
2022-09-23T12:49:00.736Z,11.95
2022-09-23T12:51:32.647Z,8.88
2022-09-23T12:54:15.654Z,5.32
2022-09-23T12:56:43.258Z,10.80
2022-09-23T12:59:27.502Z,9.88
2022-09-23T13:01:54.998Z,6.97
2022-09-23T13:05:00.083Z,10.15
2022-09-23T13:07:30.984Z,7.80
2022-09-23T13:10:24.372Z,8.03
2022-09-23T13:12:52.536Z,6.85
2022-09-23T13:15:33.019Z,8.35
2022-09-23T13:18:21.303Z,8.35
2022-09-23T13:20:53.340Z,6.75
2022-09-23T13:23:27.174Z,6.63
2022-09-23T13:25:59.260Z,7.13
2022-09-23T13:28:41.700Z,9.20
2022-09-23T13:31:14.813Z,7.43
2022-09-23T13:33:51.483Z,9.45
2022-09-23T13:36:19.523Z,10.63
2022-09-23T13:38:46.909Z,6.22
2022-09-23T13:41:25.080Z,8.60
2022-09-23T13:43:58.541Z,6.43
2022-09-23T13:46:29.851Z,7.93
2022-09-23T13:48:56.991Z,10.60
2022-09-23T13:51:36.853Z,10.60
2022-09-23T13:54:05.149Z,9.73
2022-09-23T13:56:33.174Z,8.70
2022-09-23T13:59:18.609Z,9.43
2022-09-23T14:01:45.471Z,12.17
2022-09-23T14:04:24.783Z,9.32
2022-09-23T14:06:52.564Z,8.32
2022-09-23T14:09:22.673Z,10.48
2022-09-23T14:11:51.661Z,9.55
2022-09-23T14:14:19.388Z,12.63
2022-09-23T14:16:50.510Z,11.80
2022-09-23T14:19:19.639Z,11.50
2022-09-23T14:21:53.900Z,9.77
2022-09-23T14:24:35.204Z,8.00
2022-09-23T14:27:07.873Z,13.60
2022-09-23T14:29:44.787Z,11.55
2022-09-23T14:32:15.371Z,9.52
2022-09-23T14:34:46.574Z,11.75
2022-09-23T14:37:48.489Z,12.50
2022-09-23T14:40:25.735Z,10.57
2022-09-23T14:43:04.333Z,10.55
2022-09-23T14:45:34.882Z,11.02
2022-09-23T14:48:16.285Z,12.95
2022-09-23T14:50:48.697Z,11.38
2022-09-23T14:53:24.212Z,15.13
2022-09-23T14:56:06.896Z,12.52
2022-09-23T14:58:52.435Z,12.07
2022-09-23T15:01:46.219Z,14.85
2022-09-23T15:04:21.664Z,11.05
2022-09-23T15:06:55.607Z,15.80
2022-09-23T15:09:26.041Z,11.88
2022-09-23T15:12:20.622Z,12.30
2022-09-23T15:14:53.890Z,11.15
2022-09-23T15:17:23.434Z,10.82
2022-09-23T15:19:59.643Z,13.57
2022-09-23T15:22:26.839Z,12.85
2022-09-23T15:24:55.754Z,12.57
2022-09-23T15:27:33.801Z,13.23
2022-09-23T15:30:19.179Z,12.93
2022-09-23T15:32:46.790Z,10.47
2022-09-23T15:35:19.690Z,11.90
2022-09-23T15:37:48.344Z,11.20
2022-09-23T15:40:29.927Z,11.45
2022-09-23T15:42:59.103Z,13.25
2022-09-23T15:45:35.155Z,8.80
2022-09-23T15:48:08.162Z,11.57
2022-09-23T15:50:36.105Z,10.60
2022-09-23T15:53:03.238Z,11.32
2022-09-23T15:55:29.943Z,9.65
2022-09-23T15:57:56.537Z,10.43
2022-09-23T16:00:23.785Z,9.35
2022-09-23T16:02:51.493Z,10.60
2022-09-23T16:05:33.017Z,9.63
2022-09-23T16:08:02.787Z,10.50
2022-09-23T16:10:33.997Z,12.40
2022-09-23T16:13:02.911Z,10.38
2022-09-23T16:15:31.983Z,10.85
2022-09-23T16:17:59.750Z,14.80
2022-09-23T16:20:29.786Z,11.23
2022-09-23T16:23:00.581Z,9.17
2022-09-23T16:25:31.572Z,12.20
2022-09-23T16:27:58.617Z,9.93
2022-09-23T16:30:31.618Z,10.63
2022-09-23T16:32:58.728Z,8.93
2022-09-23T16:35:27.768Z,12.67
2022-09-23T16:37:55.546Z,10.02
2022-09-23T16:40:23.832Z,12.05
2022-09-23T16:42:52.326Z,11.18
2022-09-23T16:45:22.859Z,14.80
2022-09-23T16:47:51.348Z,16.23
2022-09-23T16:50:22.524Z,11.10
2022-09-23T16:52:57.184Z,11.93
2022-09-23T16:55:27.125Z,14.15
2022-09-23T16:57:54.345Z,9.75
2022-09-23T17:00:40.421Z,15.00
2022-09-23T17:03:25.793Z,11.68
2022-09-23T17:05:54.336Z,16.05
2022-09-23T17:08:20.911Z,13.48
2022-09-23T17:10:56.956Z,16.15
2022-09-23T17:13:25.316Z,14.07
2022-09-23T17:15:52.949Z,18.35
2022-09-23T17:18:20.615Z,20.27
2022-09-23T17:21:04.842Z,16.35
2022-09-23T17:23:32.404Z,16.13
2022-09-23T17:25:59.597Z,21.63
2022-09-23T17:28:26.199Z,17.73
2022-09-23T17:30:57.974Z,18.52
2022-09-23T17:33:25.562Z,20.33
2022-09-23T17:35:52.863Z,19.55
2022-09-23T17:38:19.453Z,17.27
2022-09-23T17:40:51.108Z,19.15
2022-09-23T17:43:24.962Z,22.20
2022-09-23T17:45:56.717Z,17.40
2022-09-23T17:48:25.358Z,22.70
2022-09-23T17:51:03.932Z,20.20
2022-09-23T17:53:33.290Z,19.65
2022-09-23T17:56:01.813Z,19.92
2022-09-23T17:58:30.253Z,22.48
2022-09-23T18:00:57.602Z,20.33
2022-09-23T18:03:26.481Z,25.13
2022-09-23T18:05:53.780Z,17.67
2022-09-23T18:08:21.000Z,18.77
2022-09-23T18:10:47.595Z,18.67
2022-09-23T18:13:14.164Z,21.30
2022-09-23T18:15:41.114Z,20.30
2022-09-23T18:18:07.831Z,19.30
2022-09-23T18:20:34.417Z,19.50
2022-09-23T18:23:00.987Z,21.27
2022-09-23T18:25:39.154Z,20.67
2022-09-23T18:28:06.411Z,23.37
2022-09-23T18:30:33.377Z,24.55
2022-09-23T18:33:00.207Z,24.00
2022-09-23T18:35:27.217Z,23.25
2022-09-23T18:37:53.792Z,21.17
2022-09-23T18:40:20.478Z,26.30
2022-09-23T18:42:47.079Z,23.70
2022-09-23T18:45:13.651Z,25.63
2022-09-23T18:47:59.012Z,23.73
2022-09-23T18:50:42.851Z,24.40
2022-09-23T18:53:09.742Z,21.93
2022-09-23T18:55:37.208Z,23.13
2022-09-23T18:58:07.270Z,23.08
2022-09-23T19:00:34.460Z,24.25
2022-09-23T19:03:01.052Z,23.88
2022-09-23T19:05:27.784Z,22.00
2022-09-23T19:07:54.361Z,23.48
2022-09-23T19:10:21.680Z,24.38
2022-09-23T21:53:29.369Z,28.10
2022-09-23T21:59:42.479Z,34.27
